Kingshill, Virgin Islands
Current Conditions -  °F | °C
As of 8:00 AM on Monday 24 Nov 2014 (Local Time) from TUPJ Reporting Station
Scattered Clouds Scattered Clouds  
Wind Chill: 27°   Ceiling: Unl
Heat Index: 30°   Visibility: 6mi
Dew Point: 23°   Wind: 10mph
Humidity: 79%   Direction: 80°E
Pressure: 30.03"   Gusts: NA
Location:  17.72°N, 64.78°W
Report Text: TUPJ 241200Z 08009KT 9999 SCT020 27/23 Q1017 RMK A3005
Loading
Personal Weather Stations






























Interactive Weather Map New forecast layout! Learn more

10-Day Weather Forecast

Advertisements
Track Severe Weather on mobile